createdAt,value
2022-11-03T00:02:13.185Z,1.08
2022-11-03T00:05:36.650Z,1.70
2022-11-03T00:08:42.665Z,1.55
2022-11-03T00:11:50.699Z,1.33
2022-11-03T00:14:55.800Z,1.50
2022-11-03T00:18:00.331Z,1.20
2022-11-03T00:21:11.325Z,1.27
2022-11-03T00:24:15.649Z,1.13
2022-11-03T00:27:19.889Z,0.90
2022-11-03T00:30:24.639Z,0.93
2022-11-03T00:33:33.161Z,1.17
2022-11-03T00:36:43.283Z,0.93
2022-11-03T00:39:47.889Z,1.00
2022-11-03T00:42:52.128Z,1.27
2022-11-03T00:45:57.247Z,1.13
2022-11-03T00:49:02.116Z,1.23
2022-11-03T00:52:06.469Z,1.30
2022-11-03T00:55:10.765Z,1.30
2022-11-03T00:58:15.497Z,1.08
2022-11-03T01:01:27.193Z,1.40
2022-11-03T01:04:49.999Z,1.25
2022-11-03T01:07:54.737Z,1.40
2022-11-03T01:11:37.233Z,1.20
2022-11-03T01:14:51.345Z,1.70
2022-11-03T01:21:02.558Z,1.30
2022-11-03T01:24:07.037Z,1.55
2022-11-03T01:27:15.684Z,1.30
2022-11-03T01:30:20.094Z,1.25
2022-11-03T01:33:24.404Z,1.15
2022-11-03T01:36:28.932Z,1.00
2022-11-03T01:39:33.736Z,0.95
2022-11-03T01:42:38.388Z,1.30
2022-11-03T01:45:43.940Z,1.50
2022-11-03T01:49:29.322Z,1.20
2022-11-03T01:52:41.288Z,1.23
2022-11-03T01:55:49.024Z,1.00
2022-11-03T01:58:55.661Z,0.90
2022-11-03T02:02:00.710Z,1.33
2022-11-03T02:05:07.456Z,1.00
2022-11-03T02:08:19.478Z,1.15
2022-11-03T02:11:43.160Z,1.10
2022-11-03T02:14:59.685Z,1.15
2022-11-03T02:18:06.256Z,1.33
2022-11-03T02:21:45.946Z,1.40
2022-11-03T02:25:10.901Z,0.85
2022-11-03T02:28:20.019Z,0.90
2022-11-03T02:31:42.780Z,0.88
2022-11-03T02:35:13.458Z,1.10
2022-11-03T02:38:23.067Z,1.08
2022-11-03T02:41:29.566Z,0.90
2022-11-03T02:44:34.733Z,0.90
2022-11-03T02:47:40.285Z,1.13
2022-11-03T02:50:46.814Z,1.00
2022-11-03T02:54:04.846Z,1.40
2022-11-03T02:57:16.874Z,0.90
2022-11-03T03:00:21.887Z,1.40
2022-11-03T03:03:35.536Z,0.80
2022-11-03T03:06:59.185Z,1.27
2022-11-03T03:10:14.039Z,0.85
2022-11-03T03:13:22.710Z,1.10
2022-11-03T03:16:32.946Z,0.80
2022-11-03T03:19:59.140Z,0.90
2022-11-03T03:23:22.737Z,0.82
2022-11-03T03:26:39.008Z,1.10
2022-11-03T03:29:56.305Z,0.70
2022-11-03T03:33:04.057Z,0.85
2022-11-03T03:36:14.518Z,0.88
2022-11-03T03:39:22.512Z,1.10
2022-11-03T03:42:30.082Z,1.40
2022-11-03T03:45:36.551Z,1.00
2022-11-03T03:48:43.241Z,0.98
2022-11-03T03:51:49.894Z,1.00
2022-11-03T03:54:55.636Z,1.25
2022-11-03T03:58:00.593Z,0.90
2022-11-03T04:01:05.055Z,0.98
2022-11-03T04:04:09.526Z,1.10
2022-11-03T04:07:32.345Z,0.98
2022-11-03T04:10:36.916Z,1.08
2022-11-03T04:13:59.775Z,1.40
2022-11-03T04:17:22.510Z,1.30
2022-11-03T04:20:45.699Z,1.35
2022-11-03T04:23:50.614Z,1.00
2022-11-03T04:27:01.920Z,0.90
2022-11-03T04:30:09.299Z,0.95
2022-11-03T04:33:21.307Z,0.98
2022-11-03T04:36:32.603Z,0.80
2022-11-03T04:39:39.405Z,1.00
2022-11-03T04:42:44.991Z,1.10
2022-11-03T04:45:50.088Z,1.10
2022-11-03T04:49:00.735Z,1.00
2022-11-03T04:52:25.630Z,0.95
2022-11-03T04:55:30.265Z,0.90
2022-11-03T04:58:36.189Z,1.10
2022-11-03T05:01:41.139Z,0.82
2022-11-03T05:04:46.020Z,0.90
2022-11-03T05:07:56.540Z,0.98
2022-11-03T05:11:04.892Z,1.33
2022-11-03T05:14:25.926Z,0.75
2022-11-03T05:17:30.545Z,0.90
2022-11-03T05:20:46.502Z,0.93
2022-11-03T05:23:55.988Z,0.93
2022-11-03T05:27:00.640Z,0.80
2022-11-03T05:30:13.838Z,0.80
2022-11-03T05:33:34.394Z,0.73
2022-11-03T05:36:39.392Z,1.02
2022-11-03T05:39:46.171Z,0.90
2022-11-03T05:43:02.044Z,1.20
2022-11-03T05:46:11.319Z,1.10
2022-11-03T05:49:15.742Z,1.30
2022-11-03T05:52:25.316Z,0.93
2022-11-03T05:55:35.871Z,0.95
2022-11-03T05:58:42.267Z,0.90
2022-11-03T06:01:46.851Z,1.33
2022-11-03T06:04:51.694Z,0.93
2022-11-03T06:08:10.539Z,1.00
2022-11-03T06:11:35.942Z,1.35
2022-11-03T06:14:42.016Z,1.20
2022-11-03T06:17:46.528Z,1.10
2022-11-03T06:20:56.887Z,0.95
2022-11-03T06:24:01.305Z,0.73
2022-11-03T06:27:06.074Z,1.35
2022-11-03T06:30:38.733Z,1.40
2022-11-03T06:33:44.959Z,1.10
2022-11-03T06:36:49.758Z,1.08
2022-11-03T06:40:02.010Z,1.30
2022-11-03T06:43:28.599Z,1.10
2022-11-03T06:46:33.323Z,0.93
2022-11-03T06:49:38.409Z,1.27
2022-11-03T06:55:52.772Z,0.90
2022-11-03T06:58:58.149Z,0.95
2022-11-03T07:02:02.512Z,0.90
2022-11-03T07:05:24.023Z,0.95
2022-11-03T07:08:48.170Z,1.30
2022-11-03T07:11:57.588Z,1.50
2022-11-03T07:15:02.821Z,1.50
2022-11-03T07:18:25.542Z,1.83
2022-11-03T07:21:57.861Z,2.00
2022-11-03T07:25:06.369Z,1.60
2022-11-03T07:28:10.917Z,1.83
2022-11-03T07:31:25.345Z,1.40
2022-11-03T07:34:33.472Z,1.40
2022-11-03T07:37:38.504Z,1.20
2022-11-03T07:40:43.047Z,1.20
2022-11-03T07:43:55.758Z,1.00
2022-11-03T07:47:00.316Z,1.55
2022-11-03T07:50:14.718Z,1.20
2022-11-03T07:53:33.717Z,1.00
2022-11-03T07:57:01.627Z,1.35
2022-11-03T08:00:20.900Z,1.00
2022-11-03T08:03:46.249Z,1.33
2022-11-03T08:06:51.583Z,1.25
2022-11-03T08:09:57.015Z,0.98
2022-11-03T08:13:01.359Z,1.30
2022-11-03T08:16:06.169Z,1.13
2022-11-03T08:19:10.661Z,0.90
2022-11-03T08:22:15.416Z,1.27
2022-11-03T08:25:20.142Z,1.15
2022-11-03T08:28:24.937Z,1.10
2022-11-03T08:31:29.811Z,0.85
2022-11-03T08:34:34.550Z,0.90
2022-11-03T08:37:38.815Z,1.20
2022-11-03T08:40:43.510Z,0.82
2022-11-03T08:43:48.149Z,1.23
2022-11-03T08:46:52.647Z,1.10
2022-11-03T08:49:57.077Z,1.65
2022-11-03T08:53:01.476Z,1.40
2022-11-03T08:56:10.477Z,1.30
2022-11-03T08:59:18.180Z,1.30
2022-11-03T09:02:22.735Z,1.02
2022-11-03T09:05:27.092Z,2.05
2022-11-03T09:11:56.495Z,1.95
2022-11-03T09:15:01.555Z,1.42
2022-11-03T09:18:06.491Z,2.13
2022-11-03T09:21:11.346Z,2.35
2022-11-03T09:24:15.511Z,2.33
2022-11-03T09:27:19.991Z,1.98
2022-11-03T09:30:24.879Z,2.35
2022-11-03T09:33:29.746Z,1.80
2022-11-03T09:36:34.363Z,2.50
2022-11-03T09:39:38.960Z,1.92
2022-11-03T09:42:43.956Z,1.55
2022-11-03T09:45:48.545Z,1.30
2022-11-03T09:48:55.250Z,1.92
2022-11-03T09:52:03.157Z,1.88
2022-11-03T09:55:27.450Z,1.60
2022-11-03T09:58:34.063Z,1.50
2022-11-03T10:01:38.547Z,2.03
2022-11-03T10:04:43.380Z,2.33
2022-11-03T10:07:47.752Z,1.80
2022-11-03T10:10:53.307Z,2.00
2022-11-03T10:13:58.828Z,1.90
2022-11-03T10:17:03.363Z,2.35
2022-11-03T10:20:13.089Z,1.50
2022-11-03T10:23:17.628Z,1.60
2022-11-03T10:26:22.758Z,1.60
2022-11-03T10:29:29.149Z,1.63
2022-11-03T10:32:34.842Z,1.40
2022-11-03T10:35:41.805Z,1.35
2022-11-03T10:38:47.834Z,1.58
2022-11-03T10:41:58.572Z,1.70
2022-11-03T10:45:19.332Z,2.10
2022-11-03T10:48:26.274Z,1.92
2022-11-03T10:51:30.835Z,1.27
2022-11-03T10:54:36.260Z,2.10
2022-11-03T10:57:40.982Z,1.40
2022-11-03T11:00:45.896Z,1.30
2022-11-03T11:03:50.700Z,1.65
2022-11-03T11:06:55.290Z,1.85
2022-11-03T11:10:32.454Z,1.35
2022-11-03T11:13:36.801Z,1.40
2022-11-03T11:16:49.804Z,1.52
2022-11-03T11:20:21.935Z,1.85
2022-11-03T11:23:29.599Z,1.73
2022-11-03T11:26:35.250Z,1.67
2022-11-03T11:29:40.019Z,1.85
2022-11-03T11:32:57.964Z,1.90
2022-11-03T11:36:18.692Z,1.33
2022-11-03T11:39:31.061Z,1.60
2022-11-03T11:43:01.259Z,1.73
2022-11-03T11:46:39.924Z,1.83
2022-11-03T11:49:44.703Z,1.67
2022-11-03T11:53:08.166Z,2.10
2022-11-03T11:56:16.421Z,1.83
2022-11-03T11:59:26.054Z,1.50
2022-11-03T12:02:31.200Z,1.38
2022-11-03T12:05:36.325Z,1.38
2022-11-03T12:08:42.944Z,1.48
2022-11-03T12:11:53.891Z,1.63
2022-11-03T12:14:59.772Z,1.70
2022-11-03T12:18:33.999Z,1.58
2022-11-03T12:21:50.315Z,1.63
2022-11-03T12:25:26.466Z,1.50
2022-11-03T12:28:36.075Z,1.52
2022-11-03T12:31:40.587Z,1.63
2022-11-03T12:34:45.747Z,1.20
2022-11-03T12:37:50.421Z,1.50
2022-11-03T12:40:55.216Z,1.30
2022-11-03T12:43:59.917Z,2.10
2022-11-03T12:47:04.355Z,2.42
2022-11-03T12:50:09.437Z,1.88
2022-11-03T12:53:13.968Z,1.30
2022-11-03T12:56:19.085Z,1.40
2022-11-03T12:59:23.667Z,1.40
2022-11-03T13:02:28.007Z,1.55
2022-11-03T13:05:32.504Z,1.38
2022-11-03T13:08:38.008Z,1.40
2022-11-03T13:12:00.846Z,1.25
2022-11-03T13:15:08.547Z,1.20
2022-11-03T13:18:14.427Z,0.90
2022-11-03T13:21:19.275Z,1.10
2022-11-03T13:24:24.004Z,1.00
2022-11-03T13:27:28.785Z,0.85
2022-11-03T13:30:33.818Z,0.88
2022-11-03T13:33:39.271Z,1.33
2022-11-03T13:36:43.892Z,1.27
2022-11-03T13:39:48.642Z,1.00
2022-11-03T13:42:53.312Z,1.00
2022-11-03T13:46:02.310Z,0.73
2022-11-03T13:52:31.538Z,0.90
2022-11-03T13:55:43.679Z,0.95
2022-11-03T14:05:38.944Z,0.95
2022-11-03T14:08:43.512Z,1.10
2022-11-03T14:12:06.405Z,1.25
2022-11-03T14:15:12.322Z,1.58
2022-11-03T14:18:18.331Z,1.33
2022-11-03T14:21:22.797Z,1.75
2022-11-03T14:24:27.472Z,1.60
2022-11-03T14:27:32.367Z,1.23
2022-11-03T14:30:37.119Z,1.23
2022-11-03T14:33:41.665Z,1.40
2022-11-03T14:36:46.488Z,1.20
2022-11-03T14:39:50.483Z,1.50
2022-11-03T14:42:55.059Z,1.50
2022-11-03T14:45:59.749Z,1.50
2022-11-03T14:49:04.749Z,1.20
2022-11-03T14:52:09.272Z,1.05
2022-11-03T14:55:13.620Z,1.27
2022-11-03T14:58:18.363Z,1.30
2022-11-03T15:01:23.108Z,1.58
2022-11-03T15:04:27.997Z,1.70
2022-11-03T15:07:32.831Z,1.25
2022-11-03T15:10:37.307Z,1.25
2022-11-03T15:13:45.916Z,1.40
2022-11-03T15:16:52.873Z,2.10
2022-11-03T15:19:57.301Z,1.27
2022-11-03T15:26:28.327Z,1.20
2022-11-03T15:29:32.897Z,1.40
2022-11-03T15:32:37.431Z,1.15
2022-11-03T15:35:42.239Z,1.38
2022-11-03T15:38:47.030Z,1.25
2022-11-03T15:41:51.498Z,1.55
2022-11-03T15:44:56.310Z,1.17
2022-11-03T15:48:01.772Z,1.13
2022-11-03T15:51:06.660Z,1.20
2022-11-03T15:54:11.537Z,1.08
2022-11-03T15:57:16.115Z,1.30
2022-11-03T16:00:20.855Z,1.30
2022-11-03T16:03:25.857Z,1.75
2022-11-03T16:09:56.389Z,1.92
2022-11-03T16:13:01.073Z,1.90
2022-11-03T16:16:06.070Z,2.13
2022-11-03T16:19:10.847Z,2.00
2022-11-03T16:22:15.617Z,1.85
2022-11-03T16:25:21.529Z,1.98
2022-11-03T16:28:26.042Z,1.90
2022-11-03T16:31:31.631Z,1.70
2022-11-03T16:34:37.389Z,1.83
2022-11-03T16:37:41.964Z,1.70
2022-11-03T16:40:46.467Z,1.92
2022-11-03T16:43:51.040Z,2.00
2022-11-03T16:46:55.639Z,1.85
2022-11-03T16:50:00.315Z,1.90
2022-11-03T16:53:05.553Z,1.95
2022-11-03T16:56:10.657Z,2.35
2022-11-03T16:59:15.340Z,1.88
2022-11-03T17:02:19.813Z,1.90
2022-11-03T17:05:24.476Z,1.63
2022-11-03T17:08:51.837Z,1.92
2022-11-03T17:14:58.543Z,1.70
2022-11-03T17:18:03.198Z,1.80
2022-11-03T17:21:07.911Z,1.92
2022-11-03T17:24:13.237Z,1.40
2022-11-03T17:27:51.125Z,3.03
2022-11-03T17:30:55.896Z,2.10
2022-11-03T17:34:01.476Z,1.70
2022-11-03T17:37:06.241Z,2.03
2022-11-03T17:40:21.137Z,2.10
2022-11-03T17:43:27.954Z,2.80
2022-11-03T17:46:32.498Z,3.05
2022-11-03T17:49:37.128Z,2.60
2022-11-03T17:52:42.953Z,3.47
2022-11-03T17:56:02.875Z,2.30
2022-11-03T17:59:16.190Z,2.60
2022-11-03T18:02:31.574Z,2.60
2022-11-03T18:05:37.950Z,2.45
2022-11-03T18:08:43.810Z,3.42
2022-11-03T18:12:06.651Z,2.80
2022-11-03T18:15:19.081Z,3.25
2022-11-03T18:18:34.230Z,2.90
2022-11-03T18:21:38.838Z,2.40
2022-11-03T18:24:43.653Z,2.55
2022-11-03T18:27:48.742Z,2.38
2022-11-03T18:30:56.107Z,2.65
2022-11-03T18:34:03.695Z,2.70
2022-11-03T18:37:14.435Z,2.42
2022-11-03T18:40:20.305Z,3.35
2022-11-03T18:43:25.859Z,2.38
2022-11-03T18:46:30.411Z,2.35
2022-11-03T18:49:35.470Z,2.10
2022-11-03T18:52:51.286Z,2.75
2022-11-03T18:56:00.838Z,2.13
2022-11-03T18:59:06.765Z,2.50
2022-11-03T19:02:20.854Z,2.42
2022-11-03T19:05:25.485Z,2.55
2022-11-03T19:08:33.267Z,2.22
2022-11-03T19:11:38.145Z,1.95
2022-11-03T19:14:45.192Z,2.10
2022-11-03T19:17:57.351Z,1.85
2022-11-03T19:21:02.076Z,1.48
2022-11-03T19:24:07.179Z,1.58
2022-11-03T19:27:29.928Z,1.90
2022-11-03T19:30:34.583Z,1.90
2022-11-03T19:33:39.599Z,1.52
2022-11-03T19:36:44.899Z,1.63
2022-11-03T19:39:49.592Z,1.85
2022-11-03T19:42:54.179Z,2.03
2022-11-03T19:45:59.591Z,2.10
2022-11-03T19:49:04.658Z,2.20
2022-11-03T19:52:14.134Z,1.73
2022-11-03T19:55:19.401Z,1.80
2022-11-03T19:58:27.065Z,1.83
2022-11-03T20:01:31.583Z,2.03
2022-11-03T20:04:36.512Z,1.75
2022-11-03T20:07:42.842Z,1.80
2022-11-03T20:10:48.216Z,1.98
2022-11-03T20:13:54.011Z,2.08
2022-11-03T20:17:09.338Z,1.80
2022-11-03T20:20:16.806Z,2.20
2022-11-03T20:23:30.953Z,2.15
2022-11-03T20:29:41.128Z,1.52
2022-11-03T20:32:47.348Z,1.90
2022-11-03T20:35:53.745Z,1.90
2022-11-03T20:38:59.580Z,1.90
2022-11-03T20:42:04.600Z,1.77
2022-11-03T20:45:22.127Z,1.98
2022-11-03T20:48:28.285Z,1.52
2022-11-03T20:51:40.565Z,1.48
2022-11-03T20:54:45.101Z,1.50
2022-11-03T20:57:52.178Z,1.50
2022-11-03T21:00:56.987Z,1.70
2022-11-03T21:04:03.160Z,1.55
2022-11-03T21:07:20.273Z,1.25
2022-11-03T21:10:25.820Z,1.60
2022-11-03T21:13:30.697Z,1.58
2022-11-03T21:16:53.617Z,1.30
2022-11-03T21:20:09.824Z,1.55
2022-11-03T21:23:29.914Z,1.80
2022-11-03T21:26:36.622Z,1.40
2022-11-03T21:29:58.856Z,1.77
2022-11-03T21:33:05.077Z,1.25
2022-11-03T21:36:11.860Z,1.42
2022-11-03T21:39:17.460Z,1.63
2022-11-03T21:42:40.422Z,1.75
2022-11-03T21:45:46.249Z,1.63
2022-11-03T21:49:11.864Z,1.58
2022-11-03T21:52:42.773Z,1.60
2022-11-03T21:55:49.679Z,1.60
2022-11-03T21:58:54.899Z,1.60
2022-11-03T22:02:00.263Z,1.88
2022-11-03T22:05:10.644Z,1.65
2022-11-03T22:08:15.874Z,1.98
2022-11-03T22:11:23.471Z,1.80
2022-11-03T22:14:48.475Z,2.00
2022-11-03T22:17:53.218Z,2.20
2022-11-03T22:21:16.957Z,1.70
2022-11-03T22:24:39.870Z,1.80
2022-11-03T22:27:44.951Z,1.50
2022-11-03T22:31:08.124Z,1.48
2022-11-03T22:34:33.499Z,1.75
2022-11-03T22:41:02.289Z,1.75
2022-11-03T22:44:25.235Z,1.60
2022-11-03T22:47:29.775Z,1.30
2022-11-03T22:50:34.446Z,1.52
2022-11-03T22:53:58.104Z,1.20
2022-11-03T22:57:02.734Z,1.38
2022-11-03T23:00:08.321Z,1.23
2022-11-03T23:03:12.994Z,1.20
2022-11-03T23:06:21.228Z,1.20
2022-11-03T23:09:25.599Z,1.50
2022-11-03T23:12:31.590Z,1.63
2022-11-03T23:15:38.305Z,1.20
2022-11-03T23:19:01.817Z,1.30
2022-11-03T23:22:06.237Z,1.08
2022-11-03T23:25:10.918Z,1.25
2022-11-03T23:28:14.949Z,1.17
2022-11-03T23:31:19.326Z,1.13
2022-11-03T23:34:23.899Z,1.10
2022-11-03T23:37:28.603Z,1.00
2022-11-03T23:40:33.454Z,1.05
2022-11-03T23:43:38.438Z,0.90
2022-11-03T23:47:02.867Z,0.88
2022-11-03T23:53:11.886Z,0.90
2022-11-03T23:56:39.295Z,1.20
